N853CM KCMH-KCHS
Flight info
| Callsign | N853CM |
|---|---|
| Flight time | 1h 0m |
| Altitude | 45000 |
| Route | POBSE OHIOS GZG UNJAM OSPRI7 |
| Aircraft | C750/M-SBDE3FGHRWXY/S |
Departure
| Time | 2026-04-21 06:23 |
|---|---|
| Airport | John Glenn Columbus International Airport (KCMH) |
Arrival
| Time | 2026-04-21 07:23 |
|---|---|
| Airport | Charleston International Airport (KCHS) |
| Time | Latitude | Longitude | Altitude | Speed | Heading |
|---|---|---|---|---|---|
| 2026-04-21 06:15 | 39.99693 | -82.89029 | 821 ft | 0 kts | 93° |
| 2026-04-21 06:16 | 39.99692 | -82.89028 | 821 ft | 0 kts | 102° |
| 2026-04-21 06:16 | 39.99687 | -82.89026 | 821 ft | 3 kts | 158° |
| 2026-04-21 06:17 | 39.99640 | -82.89004 | 821 ft | 10 kts | 162° |
| 2026-04-21 06:17 | 39.99579 | -82.88984 | 821 ft | 7 kts | 168° |
| 2026-04-21 06:17 | 39.99549 | -82.88966 | 821 ft | 4 kts | 142° |
| 2026-04-21 06:17 | 39.99542 | -82.88913 | 821 ft | 11 kts | 95° |
| 2026-04-21 06:18 | 39.99533 | -82.88765 | 821 ft | 18 kts | 94° |
| 2026-04-21 06:18 | 39.99521 | -82.88544 | 821 ft | 32 kts | 94° |
| 2026-04-21 06:18 | 39.99502 | -82.88220 | 821 ft | 36 kts | 94° |
| 2026-04-21 06:18 | 39.99485 | -82.87909 | 821 ft | 33 kts | 94° |
| 2026-04-21 06:19 | 39.99429 | -82.87780 | 821 ft | 14 kts | 197° |
| 2026-04-21 06:19 | 39.99372 | -82.87771 | 821 ft | 7 kts | 131° |
| 2026-04-21 06:19 | 39.99360 | -82.87706 | 821 ft | 12 kts | 95° |
| 2026-04-21 06:19 | 39.99350 | -82.87528 | 821 ft | 26 kts | 94° |
| 2026-04-21 06:20 | 39.99331 | -82.87319 | 821 ft | 17 kts | 129° |
| 2026-04-21 06:20 | 39.99275 | -82.87376 | 821 ft | 12 kts | 275° |
| 2026-04-21 06:20 | 39.99277 | -82.87413 | 821 ft | 0 kts | 274° |
| 2026-04-21 06:20 | 39.99271 | -82.87438 | 821 ft | 9 kts | 232° |
| 2026-04-21 06:21 | 39.99198 | -82.87459 | 820 ft | 11 kts | 208° |
| 2026-04-21 06:21 | 39.99175 | -82.87546 | 820 ft | 13 kts | 276° |
| 2026-04-21 06:21 | 39.99188 | -82.87770 | 820 ft | 44 kts | 274° |
| 2026-04-21 06:21 | 39.99215 | -82.88405 | 822 ft | 93 kts | 270° |
| 2026-04-21 06:22 | 39.99215 | -82.88549 | 824 ft | 98 kts | 270° |
| 2026-04-21 06:22 | 39.99131 | -82.89513 | 832 ft | 123 kts | 255° |
| 2026-04-21 06:22 | 39.98979 | -82.90684 | 1220 ft | 134 kts | 259° |
| 2026-04-21 06:23 | 39.98830 | -82.91941 | 1809 ft | 151 kts | 259° |
| 2026-04-21 06:23 | 39.98663 | -82.93478 | 1815 ft | 191 kts | 259° |
| 2026-04-21 06:23 | 39.98464 | -82.95372 | 1769 ft | 228 kts | 260° |
| 2026-04-21 06:23 | 39.98223 | -82.97515 | 2080 ft | 253 kts | 259° |
| 2026-04-21 06:24 | 39.97747 | -82.99718 | 2826 ft | 254 kts | 236° |
| 2026-04-21 06:24 | 39.96395 | -83.01064 | 4087 ft | 245 kts | 203° |
| 2026-04-21 06:24 | 39.94691 | -83.01473 | 5092 ft | 258 kts | 183° |
| 2026-04-21 06:24 | 39.92922 | -83.00831 | 5960 ft | 277 kts | 155° |
| 2026-04-21 06:25 | 39.91282 | -82.99409 | 6912 ft | 287 kts | 145° |
| 2026-04-21 06:25 | 39.89628 | -82.97873 | 7857 ft | 296 kts | 147° |
| 2026-04-21 06:25 | 39.87856 | -82.96416 | 8861 ft | 305 kts | 149° |
| 2026-04-21 06:25 | 39.86030 | -82.94971 | 9756 ft | 316 kts | 148° |
| 2026-04-21 06:26 | 39.84127 | -82.93403 | 10430 ft | 332 kts | 147° |
| 2026-04-21 06:26 | 39.82095 | -82.91699 | 10685 ft | 360 kts | 147° |
| 2026-04-21 06:26 | 39.79923 | -82.89905 | 10826 ft | 386 kts | 148° |
| 2026-04-21 06:26 | 39.77629 | -82.88031 | 11564 ft | 390 kts | 148° |
| 2026-04-21 06:27 | 39.75319 | -82.86133 | 12333 ft | 395 kts | 148° |
| 2026-04-21 06:27 | 39.72972 | -82.84196 | 13056 ft | 400 kts | 148° |
| 2026-04-21 06:27 | 39.70599 | -82.82246 | 13801 ft | 405 kts | 148° |
| 2026-04-21 06:27 | 39.68199 | -82.80281 | 14482 ft | 410 kts | 148° |
| 2026-04-21 06:28 | 39.65800 | -82.78315 | 15114 ft | 415 kts | 148° |
| 2026-04-21 06:28 | 39.63348 | -82.76304 | 15788 ft | 419 kts | 148° |
| 2026-04-21 06:28 | 39.60854 | -82.74263 | 16458 ft | 423 kts | 148° |
| 2026-04-21 06:28 | 39.58347 | -82.72214 | 17133 ft | 428 kts | 148° |
| 2026-04-21 06:29 | 39.55812 | -82.70142 | 17815 ft | 433 kts | 148° |
| 2026-04-21 06:29 | 39.53236 | -82.68039 | 18517 ft | 438 kts | 148° |
| 2026-04-21 06:29 | 39.50670 | -82.65946 | 19151 ft | 443 kts | 148° |
| 2026-04-21 06:29 | 39.47992 | -82.63938 | 19753 ft | 447 kts | 155° |
| 2026-04-21 06:30 | 39.45056 | -82.62584 | 20439 ft | 448 kts | 167° |
| 2026-04-21 06:30 | 39.41974 | -82.61927 | 21112 ft | 449 kts | 179° |
| 2026-04-21 06:30 | 39.38854 | -82.61990 | 21766 ft | 448 kts | 189° |
| 2026-04-21 06:30 | 39.35767 | -82.62321 | 22400 ft | 452 kts | 189° |
| 2026-04-21 06:31 | 39.32599 | -82.62642 | 23036 ft | 457 kts | 188° |
| 2026-04-21 06:31 | 39.29403 | -82.62956 | 23652 ft | 462 kts | 188° |
| 2026-04-21 06:31 | 39.26175 | -82.63283 | 24204 ft | 466 kts | 189° |
| 2026-04-21 06:31 | 39.22950 | -82.63616 | 24743 ft | 470 kts | 189° |
| 2026-04-21 06:32 | 39.19664 | -82.63951 | 25273 ft | 473 kts | 189° |
| 2026-04-21 06:32 | 39.16360 | -82.64281 | 25795 ft | 477 kts | 189° |
| 2026-04-21 06:32 | 39.13039 | -82.64616 | 26318 ft | 480 kts | 189° |
| 2026-04-21 06:32 | 39.09686 | -82.64958 | 26818 ft | 484 kts | 189° |
| 2026-04-21 06:33 | 39.06345 | -82.65296 | 27329 ft | 488 kts | 189° |
| 2026-04-21 06:33 | 39.02934 | -82.65638 | 27853 ft | 491 kts | 188° |
| 2026-04-21 06:33 | 39.00667 | -82.65865 | 28198 ft | 494 kts | 188° |
| 2026-04-21 06:33 | 38.96099 | -82.66326 | 28891 ft | 499 kts | 189° |
| 2026-04-21 06:34 | 38.92617 | -82.66678 | 29404 ft | 503 kts | 188° |
| 2026-04-21 06:34 | 38.90276 | -82.66912 | 29751 ft | 505 kts | 188° |
| 2026-04-21 06:34 | 38.86759 | -82.67265 | 30235 ft | 509 kts | 188° |
| 2026-04-21 06:34 | 38.82020 | -82.67390 | 30767 ft | 519 kts | 179° |
| 2026-04-21 06:35 | 38.79588 | -82.67002 | 31095 ft | 523 kts | 173° |
| 2026-04-21 06:35 | 38.76070 | -82.65979 | 31619 ft | 524 kts | 168° |
| 2026-04-21 06:35 | 38.72523 | -82.64870 | 32308 ft | 521 kts | 169° |
| 2026-04-21 06:35 | 38.68990 | -82.63794 | 32966 ft | 519 kts | 169° |
| 2026-04-21 06:36 | 38.65522 | -82.62740 | 33595 ft | 517 kts | 169° |
| 2026-04-21 06:36 | 38.62021 | -82.61658 | 34249 ft | 516 kts | 169° |
| 2026-04-21 06:36 | 38.58530 | -82.60577 | 34833 ft | 514 kts | 169° |
| 2026-04-21 06:36 | 38.55045 | -82.59511 | 35398 ft | 513 kts | 169° |
| 2026-04-21 06:37 | 38.51568 | -82.58452 | 35965 ft | 512 kts | 170° |
| 2026-04-21 06:37 | 38.48145 | -82.57404 | 36512 ft | 511 kts | 170° |
| 2026-04-21 06:37 | 38.44676 | -82.56340 | 37088 ft | 510 kts | 170° |
| 2026-04-21 06:37 | 38.41221 | -82.55284 | 37639 ft | 509 kts | 170° |
| 2026-04-21 06:38 | 38.37773 | -82.54235 | 38228 ft | 508 kts | 170° |
| 2026-04-21 06:38 | 38.34341 | -82.53189 | 38815 ft | 506 kts | 170° |
| 2026-04-21 06:38 | 38.30939 | -82.52152 | 39305 ft | 506 kts | 171° |
| 2026-04-21 06:38 | 38.27501 | -82.51106 | 39742 ft | 506 kts | 171° |
| 2026-04-21 06:39 | 38.24073 | -82.50065 | 40206 ft | 505 kts | 171° |
| 2026-04-21 06:39 | 38.20692 | -82.49039 | 40673 ft | 505 kts | 171° |
| 2026-04-21 06:39 | 38.17260 | -82.47997 | 41131 ft | 505 kts | 171° |
| 2026-04-21 06:39 | 38.13829 | -82.46957 | 41598 ft | 505 kts | 171° |
| 2026-04-21 06:40 | 38.10460 | -82.45938 | 42055 ft | 504 kts | 171° |
| 2026-04-21 06:40 | 38.07039 | -82.44903 | 42518 ft | 504 kts | 171° |
| 2026-04-21 06:40 | 38.03620 | -82.43870 | 42988 ft | 504 kts | 171° |
| 2026-04-21 06:40 | 38.00209 | -82.42840 | 43419 ft | 504 kts | 171° |
| 2026-04-21 06:41 | 37.96791 | -82.41810 | 43865 ft | 504 kts | 171° |
| 2026-04-21 06:41 | 37.93374 | -82.40780 | 44287 ft | 503 kts | 172° |
| 2026-04-21 06:41 | 37.89998 | -82.39763 | 44784 ft | 502 kts | 172° |
| 2026-04-21 06:41 | 37.86588 | -82.38738 | 45185 ft | 503 kts | 172° |
| 2026-04-21 06:42 | 37.83157 | -82.37709 | 45323 ft | 509 kts | 172° |
| 2026-04-21 06:42 | 37.76193 | -82.35623 | 45346 ft | 525 kts | 172° |
| 2026-04-21 06:43 | 37.68960 | -82.33454 | 45332 ft | 540 kts | 172° |
| 2026-04-21 06:43 | 37.61608 | -82.31258 | 45346 ft | 550 kts | 172° |
| 2026-04-21 06:44 | 37.54163 | -82.29033 | 45333 ft | 548 kts | 172° |
| 2026-04-21 06:44 | 37.46707 | -82.26818 | 45335 ft | 549 kts | 172° |
| 2026-04-21 06:45 | 37.39304 | -82.24617 | 45328 ft | 550 kts | 172° |
| 2026-04-21 06:45 | 37.31840 | -82.22405 | 45326 ft | 549 kts | 172° |
| 2026-04-21 06:46 | 37.24394 | -82.20203 | 45326 ft | 549 kts | 172° |
| 2026-04-21 06:46 | 37.16982 | -82.18015 | 45329 ft | 550 kts | 172° |
| 2026-04-21 06:47 | 37.09503 | -82.15812 | 45333 ft | 550 kts | 172° |
| 2026-04-21 06:47 | 37.02076 | -82.13628 | 45336 ft | 550 kts | 172° |
| 2026-04-21 06:48 | 36.94617 | -82.11440 | 45334 ft | 549 kts | 173° |
| 2026-04-21 06:48 | 36.87138 | -82.09251 | 45337 ft | 551 kts | 173° |
| 2026-04-21 06:49 | 36.79743 | -82.06579 | 45333 ft | 557 kts | 163° |
| 2026-04-21 06:49 | 36.72602 | -82.02836 | 45352 ft | 560 kts | 162° |
| 2026-04-21 06:50 | 36.65346 | -81.99250 | 45344 ft | 560 kts | 163° |
| 2026-04-21 06:50 | 36.58173 | -81.95597 | 45345 ft | 560 kts | 162° |
| 2026-04-21 06:51 | 36.50951 | -81.91983 | 45322 ft | 559 kts | 163° |
| 2026-04-21 06:51 | 36.43735 | -81.88361 | 45311 ft | 562 kts | 163° |
| 2026-04-21 06:52 | 36.36474 | -81.84719 | 45315 ft | 561 kts | 163° |
| 2026-04-21 06:52 | 36.29249 | -81.81118 | 45317 ft | 562 kts | 163° |
| 2026-04-21 06:53 | 36.21975 | -81.77483 | 45322 ft | 562 kts | 163° |
| 2026-04-21 06:53 | 36.14736 | -81.73889 | 45328 ft | 565 kts | 163° |
| 2026-04-21 06:54 | 36.07418 | -81.70246 | 45322 ft | 564 kts | 163° |
| 2026-04-21 06:54 | 36.00155 | -81.66653 | 45322 ft | 565 kts | 163° |
| 2026-04-21 06:55 | 35.92854 | -81.63036 | 45313 ft | 565 kts | 163° |
| 2026-04-21 06:55 | 35.85557 | -81.59437 | 45385 ft | 566 kts | 163° |
| 2026-04-21 06:56 | 35.78227 | -81.55823 | 45340 ft | 566 kts | 163° |
| 2026-04-21 06:56 | 35.70875 | -81.52211 | 45347 ft | 569 kts | 163° |
| 2026-04-21 06:57 | 35.63543 | -81.48609 | 45349 ft | 568 kts | 163° |
| 2026-04-21 06:57 | 35.56236 | -81.45033 | 45335 ft | 568 kts | 163° |
| 2026-04-21 06:58 | 35.48884 | -81.41437 | 45337 ft | 568 kts | 163° |
| 2026-04-21 06:58 | 35.41562 | -81.37866 | 45341 ft | 568 kts | 163° |
| 2026-04-21 06:59 | 35.34197 | -81.34281 | 45342 ft | 569 kts | 163° |
| 2026-04-21 06:59 | 35.26821 | -81.30696 | 45337 ft | 568 kts | 163° |
| 2026-04-21 07:00 | 35.19511 | -81.27151 | 45339 ft | 567 kts | 163° |
| 2026-04-21 07:00 | 35.12209 | -81.23614 | 45330 ft | 561 kts | 163° |
| 2026-04-21 07:01 | 35.04933 | -81.20103 | 45343 ft | 562 kts | 163° |
| 2026-04-21 07:01 | 34.94010 | -81.14836 | 45349 ft | 562 kts | 163° |
| 2026-04-21 07:02 | 34.86749 | -81.11347 | 45364 ft | 565 kts | 164° |
| 2026-04-21 07:02 | 34.79419 | -81.07827 | 45359 ft | 564 kts | 164° |
| 2026-04-21 07:03 | 34.72162 | -81.04353 | 45354 ft | 564 kts | 164° |
| 2026-04-21 07:03 | 34.64846 | -81.00854 | 45305 ft | 564 kts | 164° |
| 2026-04-21 07:04 | 34.57553 | -80.97377 | 45321 ft | 566 kts | 164° |
| 2026-04-21 07:04 | 34.50229 | -80.93885 | 45316 ft | 565 kts | 164° |
| 2026-04-21 07:05 | 34.42925 | -80.90415 | 45342 ft | 564 kts | 164° |
| 2026-04-21 07:05 | 34.35656 | -80.86963 | 45316 ft | 562 kts | 165° |
| 2026-04-21 07:06 | 34.28338 | -80.83503 | 45309 ft | 564 kts | 165° |
| 2026-04-21 07:06 | 34.20930 | -80.80505 | 45296 ft | 553 kts | 175° |
| 2026-04-21 07:07 | 34.13441 | -80.79695 | 45287 ft | 539 kts | 187° |
| 2026-04-21 07:07 | 34.05879 | -80.79366 | 45249 ft | 546 kts | 184° |
| 2026-04-21 07:08 | 34.02116 | -80.79013 | 43953 ft | 543 kts | 184° |
| 2026-04-21 07:08 | 33.98353 | -80.78757 | 42500 ft | 547 kts | 186° |
| 2026-04-21 07:08 | 33.94590 | -80.78581 | 41292 ft | 541 kts | 186° |
| 2026-04-21 07:08 | 33.90812 | -80.78357 | 40174 ft | 540 kts | 185° |
| 2026-04-21 07:09 | 33.87045 | -80.78077 | 38853 ft | 542 kts | 184° |
| 2026-04-21 07:09 | 33.83302 | -80.77816 | 37589 ft | 533 kts | 185° |
| 2026-04-21 07:09 | 33.79596 | -80.77596 | 36358 ft | 527 kts | 185° |
| 2026-04-21 07:09 | 33.75983 | -80.77385 | 35182 ft | 522 kts | 185° |
| 2026-04-21 07:10 | 33.72374 | -80.77149 | 34019 ft | 517 kts | 184° |
| 2026-04-21 07:10 | 33.68813 | -80.76905 | 32873 ft | 507 kts | 184° |
| 2026-04-21 07:10 | 33.65291 | -80.76684 | 31729 ft | 505 kts | 184° |
| 2026-04-21 07:10 | 33.61767 | -80.76476 | 30576 ft | 508 kts | 183° |
| 2026-04-21 07:11 | 33.58277 | -80.76255 | 29402 ft | 504 kts | 183° |
| 2026-04-21 07:11 | 33.54790 | -80.76016 | 28248 ft | 495 kts | 182° |
| 2026-04-21 07:11 | 33.51379 | -80.75795 | 27139 ft | 485 kts | 183° |
| 2026-04-21 07:11 | 33.48035 | -80.75593 | 26049 ft | 476 kts | 183° |
| 2026-04-21 07:12 | 33.44801 | -80.75393 | 24996 ft | 468 kts | 182° |
| 2026-04-21 07:12 | 33.41571 | -80.75184 | 23942 ft | 460 kts | 182° |
| 2026-04-21 07:12 | 33.38391 | -80.74979 | 22859 ft | 450 kts | 182° |
| 2026-04-21 07:12 | 33.35282 | -80.74675 | 21815 ft | 447 kts | 175° |
| 2026-04-21 07:13 | 33.32348 | -80.73493 | 20820 ft | 449 kts | 157° |
| 2026-04-21 07:13 | 33.29605 | -80.71696 | 19822 ft | 446 kts | 152° |
| 2026-04-21 07:13 | 33.26939 | -80.69831 | 18815 ft | 440 kts | 150° |
| 2026-04-21 07:13 | 33.24489 | -80.67791 | 17750 ft | 432 kts | 137° |
| 2026-04-21 07:14 | 33.22634 | -80.65040 | 16800 ft | 420 kts | 119° |
| 2026-04-21 07:14 | 33.21431 | -80.61905 | 15878 ft | 411 kts | 109° |
| 2026-04-21 07:14 | 33.20371 | -80.58740 | 14924 ft | 406 kts | 109° |
| 2026-04-21 07:14 | 33.19347 | -80.55660 | 14016 ft | 401 kts | 109° |
| 2026-04-21 07:15 | 33.18308 | -80.52599 | 13082 ft | 392 kts | 110° |
| 2026-04-21 07:15 | 33.17290 | -80.49625 | 12195 ft | 379 kts | 110° |
| 2026-04-21 07:15 | 33.16311 | -80.46735 | 11058 ft | 373 kts | 110° |
| 2026-04-21 07:15 | 33.15371 | -80.43948 | 10233 ft | 359 kts | 110° |
| 2026-04-21 07:16 | 33.14444 | -80.41222 | 9400 ft | 346 kts | 110° |
| 2026-04-21 07:16 | 33.13689 | -80.38564 | 8585 ft | 330 kts | 98° |
| 2026-04-21 07:16 | 33.13600 | -80.35895 | 7897 ft | 315 kts | 87° |
| 2026-04-21 07:16 | 33.13592 | -80.33313 | 7180 ft | 308 kts | 88° |
| 2026-04-21 07:17 | 33.13573 | -80.30819 | 6881 ft | 289 kts | 88° |
| 2026-04-21 07:17 | 33.13566 | -80.28476 | 6258 ft | 284 kts | 88° |
| 2026-04-21 07:17 | 33.13256 | -80.26151 | 5448 ft | 286 kts | 107° |
| 2026-04-21 07:17 | 33.12690 | -80.23895 | 4880 ft | 280 kts | 104° |
| 2026-04-21 07:18 | 33.12244 | -80.21650 | 4231 ft | 276 kts | 102° |
| 2026-04-21 07:18 | 33.11395 | -80.19644 | 3337 ft | 279 kts | 133° |
| 2026-04-21 07:18 | 33.09780 | -80.18507 | 2974 ft | 258 kts | 162° |
| 2026-04-21 07:18 | 33.08164 | -80.17687 | 3008 ft | 252 kts | 154° |
| 2026-04-21 07:19 | 33.06673 | -80.16538 | 3014 ft | 257 kts | 148° |
| 2026-04-21 07:19 | 33.05220 | -80.15389 | 3010 ft | 236 kts | 149° |
| 2026-04-21 07:19 | 33.03896 | -80.14388 | 2990 ft | 219 kts | 150° |
| 2026-04-21 07:19 | 33.02595 | -80.13407 | 2699 ft | 228 kts | 150° |
| 2026-04-21 07:20 | 33.01265 | -80.12396 | 2386 ft | 222 kts | 151° |
| 2026-04-21 07:20 | 33.00021 | -80.11445 | 2096 ft | 207 kts | 152° |
| 2026-04-21 07:20 | 32.98862 | -80.10556 | 1813 ft | 184 kts | 152° |
| 2026-04-21 07:20 | 32.97880 | -80.09802 | 1579 ft | 153 kts | 154° |
| 2026-04-21 07:21 | 32.97053 | -80.09177 | 1395 ft | 130 kts | 154° |
| 2026-04-21 07:21 | 32.96310 | -80.08617 | 1234 ft | 124 kts | 155° |
| 2026-04-21 07:21 | 32.95592 | -80.08071 | 1086 ft | 124 kts | 155° |
| 2026-04-21 07:21 | 32.94860 | -80.07516 | 919 ft | 124 kts | 153° |
| 2026-04-21 07:22 | 32.94134 | -80.06963 | 750 ft | 123 kts | 152° |
| 2026-04-21 07:22 | 32.93411 | -80.06412 | 585 ft | 124 kts | 150° |
| 2026-04-21 07:22 | 32.92928 | -80.06044 | 472 ft | 124 kts | 148° |
| 2026-04-21 07:22 | 32.92196 | -80.05488 | 303 ft | 124 kts | 148° |
| 2026-04-21 07:23 | 32.91467 | -80.04934 | 139 ft | 124 kts | 147° |
| 2026-04-21 07:23 | 32.90779 | -80.04389 | 84 ft | 108 kts | 145° |
| 2026-04-21 07:23 | 32.90163 | -80.03942 | 39 ft | 96 kts | 150° |
| 2026-04-21 07:23 | 32.89752 | -80.03639 | 35 ft | 28 kts | 149° |
| 2026-04-21 07:24 | 32.89663 | -80.03599 | 34 ft | 9 kts | 201° |
| 2026-04-21 07:24 | 32.89642 | -80.03652 | 35 ft | 7 kts | 274° |
| 2026-04-21 07:24 | 32.89648 | -80.03701 | 36 ft | 5 kts | 278° |
| 2026-04-21 07:24 | 32.89653 | -80.03739 | 36 ft | 4 kts | 279° |
| 2026-04-21 07:25 | 32.89655 | -80.03772 | 37 ft | 4 kts | 265° |
| 2026-04-21 07:25 | 32.89656 | -80.03814 | 37 ft | 9 kts | 276° |
| 2026-04-21 07:25 | 32.89671 | -80.03933 | 37 ft | 9 kts | 287° |
| 2026-04-21 07:25 | 32.89673 | -80.03940 | 37 ft | 1 kts | 287° |
| 2026-04-21 07:26 | 32.89642 | -80.03971 | 37 ft | 10 kts | 195° |
| 2026-04-21 07:26 | 32.89604 | -80.03979 | 37 ft | 3 kts | 271° |
| 2026-04-21 07:26 | 32.89638 | -80.03991 | 37 ft | 6 kts | 0° |
| 2026-04-21 07:26 | 32.89668 | -80.03985 | 37 ft | 3 kts | 348° |
| 2026-04-21 07:27 | 32.89675 | -80.04009 | 37 ft | 10 kts | 283° |
| 2026-04-21 07:27 | 32.89685 | -80.04107 | 37 ft | 12 kts | 278° |
| 2026-04-21 07:27 | 32.89695 | -80.04213 | 37 ft | 19 kts | 277° |
| 2026-04-21 07:27 | 32.89712 | -80.04400 | 37 ft | 21 kts | 276° |
| 2026-04-21 07:28 | 32.89776 | -80.04491 | 37 ft | 15 kts | 319° |
| 2026-04-21 07:28 | 32.89806 | -80.04598 | 37 ft | 14 kts | 275° |
| 2026-04-21 07:28 | 32.89815 | -80.04711 | 37 ft | 14 kts | 278° |
| 2026-04-21 07:28 | 32.89820 | -80.04745 | 37 ft | 0 kts | 280° |